createdAt,value
2022-10-31T00:00:04.462Z,85.22
2022-10-31T00:01:04.524Z,85.41
2022-10-31T00:02:05.853Z,85.32
2022-10-31T00:03:06.683Z,85.03
2022-10-31T00:04:06.603Z,84.94
2022-10-31T00:05:06.847Z,85.13
2022-10-31T00:06:07.851Z,84.55
2022-10-31T00:07:08.767Z,84.94
2022-10-31T00:08:09.701Z,84.75
2022-10-31T00:09:09.609Z,84.94
2022-10-31T00:10:10.513Z,84.55
2022-10-31T00:11:11.418Z,85.13
2022-10-31T00:12:12.052Z,85.13
2022-10-31T00:13:13.079Z,84.94
2022-10-31T00:14:14.232Z,85.13
2022-10-31T00:15:15.140Z,85.03
2022-10-31T00:16:15.440Z,84.65
2022-10-31T00:17:15.940Z,84.84
2022-10-31T00:18:16.451Z,84.75
2022-10-31T00:19:17.073Z,84.55
2022-10-31T00:20:17.580Z,84.36
2022-10-31T00:21:18.068Z,83.89
2022-10-31T00:22:18.271Z,83.79
2022-10-31T00:23:18.462Z,84.17
2022-10-31T00:24:19.051Z,83.89
2022-10-31T00:25:19.534Z,83.89
2022-10-31T00:26:20.297Z,83.5
2022-10-31T00:27:20.491Z,83.89
2022-10-31T00:28:21.549Z,83.79
2022-10-31T00:29:22.134Z,83.12
2022-10-31T00:30:22.374Z,83.69
2022-10-31T00:31:22.869Z,83.69
2022-10-31T00:32:23.375Z,83.6
2022-10-31T00:33:24.316Z,84.17
2022-10-31T00:34:24.946Z,84.65
2022-10-31T00:35:25.465Z,83.98
2022-10-31T00:36:26.312Z,83.98
2022-10-31T00:37:27.230Z,83.69
2022-10-31T00:38:28.136Z,84.46
2022-10-31T00:39:28.463Z,84.36
2022-10-31T00:40:29.655Z,84.36
2022-10-31T00:41:29.860Z,84.17
2022-10-31T00:42:30.056Z,85.03
2022-10-31T00:43:30.671Z,85.03
2022-10-31T00:44:31.161Z,85.03
2022-10-31T00:45:31.775Z,84.89
2022-10-31T00:46:32.471Z,85.61
2022-10-31T00:47:33.691Z,85.28
2022-10-31T00:48:34.332Z,84.52
2022-10-31T00:49:35.544Z,85.09
2022-10-31T00:50:36.190Z,85.47
2022-10-31T00:51:37.406Z,85.94
2022-10-31T00:52:37.578Z,85.57
2022-10-31T00:53:38.464Z,85.28
2022-10-31T00:54:38.944Z,85.66
2022-10-31T00:55:39.152Z,86.43
2022-10-31T00:56:40.159Z,85.94
2022-10-31T00:57:40.366Z,86.33
2022-10-31T00:58:40.571Z,86.23
2022-10-31T00:59:40.844Z,86.8
2022-10-31T01:00:42.054Z,86.9
2022-10-31T01:01:42.957Z,86.43
2022-10-31T01:02:43.441Z,87
2022-10-31T01:03:43.688Z,87
2022-10-31T01:04:43.891Z,86.8
2022-10-31T01:05:44.406Z,86.71
2022-10-31T01:06:44.689Z,87
2022-10-31T01:07:44.900Z,86.52
2022-10-31T01:08:45.811Z,86.71
2022-10-31T01:09:46.002Z,87.29
2022-10-31T01:10:47.187Z,87.19
2022-10-31T01:11:47.802Z,87.19
2022-10-31T01:12:48.723Z,87.29
2022-10-31T01:13:49.787Z,86.9
2022-10-31T01:14:50.271Z,86.43
2022-10-31T01:15:50.693Z,86.8
2022-10-31T01:16:51.743Z,86.52
2022-10-31T01:17:52.662Z,86.23
2022-10-31T01:18:53.347Z,86.43
2022-10-31T01:19:53.832Z,85.94
2022-10-31T01:20:54.048Z,85.94
2022-10-31T01:21:54.957Z,85.57
2022-10-31T01:22:55.289Z,85.38
2022-10-31T01:23:55.479Z,85.47
2022-10-31T01:24:56.111Z,85.66
2022-10-31T01:25:56.594Z,86.14
2022-10-31T01:26:57.004Z,86.61
2022-10-31T01:27:58.531Z,85.66
2022-10-31T01:28:58.085Z,85.85
2022-10-31T01:29:58.720Z,85.75
2022-10-31T01:30:58.909Z,85.66
2022-10-31T01:32:00.113Z,85.38
2022-10-31T01:33:00.456Z,85.38
2022-10-31T01:34:00.339Z,86.04
2022-10-31T01:35:00.820Z,85.47
2022-10-31T01:36:01.783Z,85.66
2022-10-31T01:37:01.907Z,86.52
2022-10-31T01:38:02.807Z,85.66
2022-10-31T01:39:03.696Z,85.66
2022-10-31T01:40:04.606Z,85.85
2022-10-31T01:41:04.813Z,85.85
2022-10-31T01:42:04.722Z,85.75
2022-10-31T01:43:06.369Z,85.85
2022-10-31T01:44:06.324Z,85.47
2022-10-31T01:45:07.256Z,86.33
2022-10-31T01:46:08.161Z,86.33
2022-10-31T01:47:08.854Z,86.71
2022-10-31T01:48:10.212Z,86.71
2022-10-31T01:49:10.851Z,86.38
2022-10-31T01:50:11.038Z,86.43
2022-10-31T01:51:11.273Z,86.86
2022-10-31T01:52:11.890Z,86.38
2022-10-31T01:53:11.809Z,86.61
2022-10-31T01:54:12.957Z,86.38
2022-10-31T01:55:12.869Z,87.09
2022-10-31T01:56:13.215Z,87.05
2022-10-31T01:57:13.376Z,86.86
2022-10-31T01:58:14.210Z,87.05
2022-10-31T01:59:14.998Z,87.05
2022-10-31T02:00:15.614Z,87.15
2022-10-31T02:01:17.016Z,87.15
2022-10-31T02:02:17.478Z,87.15
2022-10-31T02:03:17.343Z,86.76
2022-10-31T02:04:18.284Z,86.96
2022-10-31T02:05:18.835Z,87.34
2022-10-31T02:06:19.059Z,86.76
2022-10-31T02:07:20.041Z,87.72
2022-10-31T02:08:20.529Z,87.72
2022-10-31T02:09:21.466Z,87.62
2022-10-31T02:10:22.401Z,87.34
2022-10-31T02:11:22.310Z,87.62
2022-10-31T02:12:22.652Z,87.62
2022-10-31T02:13:23.235Z,87.72
2022-10-31T02:14:23.440Z,87.72
2022-10-31T02:15:24.043Z,87.62
2022-10-31T02:16:24.949Z,87.53
2022-10-31T02:17:25.966Z,87.72
2022-10-31T02:18:26.614Z,87.72
2022-10-31T02:19:27.574Z,87.91
2022-10-31T02:20:28.065Z,87.91
2022-10-31T02:21:28.573Z,87.91
2022-10-31T02:22:28.463Z,88.01
2022-10-31T02:23:28.802Z,87.62
2022-10-31T02:24:29.695Z,88.1
2022-10-31T02:25:30.175Z,88.1
2022-10-31T02:26:30.063Z,88.1
2022-10-31T02:27:31.040Z,88.2
2022-10-31T02:28:32.005Z,87.62
2022-10-31T02:29:32.213Z,88.1
2022-10-31T02:30:32.701Z,87.91
2022-10-31T02:31:32.614Z,87.53
2022-10-31T02:32:33.825Z,87.62
2022-10-31T02:33:34.183Z,88.01
2022-10-31T02:34:35.114Z,88.39
2022-10-31T02:35:35.621Z,88.58
2022-10-31T02:36:36.121Z,88.68
2022-10-31T02:37:36.551Z,88.48
2022-10-31T02:38:37.435Z,88.58
2022-10-31T02:39:38.373Z,88.77
2022-10-31T02:40:38.563Z,87.91
2022-10-31T02:41:39.477Z,88.2
2022-10-31T02:42:40.091Z,88.58
2022-10-31T02:43:40.457Z,88.39
2022-10-31T02:44:41.065Z,88.58
2022-10-31T02:45:41.256Z,88.01
2022-10-31T02:46:41.440Z,87.72
2022-10-31T02:47:41.297Z,88.1
2022-10-31T02:48:42.283Z,88.1
2022-10-31T02:49:42.710Z,88.77
2022-10-31T02:50:42.891Z,87.87
2022-10-31T02:51:43.116Z,88.06
2022-10-31T02:52:44.025Z,88.06
2022-10-31T02:53:43.937Z,88.44
2022-10-31T02:54:44.867Z,88.54
2022-10-31T02:55:45.485Z,88.44
2022-10-31T02:56:46.684Z,88.34
2022-10-31T02:57:46.984Z,88.25
2022-10-31T02:58:47.853Z,88.34
2022-10-31T02:59:48.510Z,88.82
2022-10-31T03:00:52.588Z,89.2
2022-10-31T03:01:50.269Z,88.54
2022-10-31T03:02:50.446Z,88.54
2022-10-31T03:03:51.010Z,88.82
2022-10-31T03:04:51.244Z,88.82
2022-10-31T03:05:52.167Z,89.11
2022-10-31T03:06:52.386Z,89.68
2022-10-31T03:07:53.081Z,89.49
2022-10-31T03:08:53.716Z,89.59
2022-10-31T03:09:54.588Z,89.3
2022-10-31T03:10:55.803Z,89.39
2022-10-31T03:11:55.717Z,89.3
2022-10-31T03:12:56.053Z,89.59
2022-10-31T03:13:57.029Z,89.39
2022-10-31T03:14:57.940Z,89.01
2022-10-31T03:15:58.127Z,89.2
2022-10-31T03:16:59.327Z,89.49
2022-10-31T03:18:00.328Z,89.39
2022-10-31T03:19:01.036Z,89.01
2022-10-31T03:20:01.400Z,89.49
2022-10-31T03:21:01.587Z,89.78
2022-10-31T03:22:02.222Z,89.59
2022-10-31T03:23:03.140Z,89.49
2022-10-31T03:24:03.775Z,89.39
2022-10-31T03:25:04.107Z,89.3
2022-10-31T03:26:04.315Z,89.3
2022-10-31T03:27:04.558Z,89.16
2022-10-31T03:28:05.936Z,89.87
2022-10-31T03:29:05.332Z,89.64
2022-10-31T03:30:05.947Z,89.35
2022-10-31T03:31:11.850Z,88.97
2022-10-31T03:32:07.044Z,88.87
2022-10-31T03:33:08.378Z,89.01
2022-10-31T03:34:08.585Z,88.54
2022-10-31T03:35:08.492Z,89.54
2022-10-31T03:36:09.691Z,88.97
2022-10-31T03:37:09.900Z,88.82
2022-10-31T03:38:13.199Z,89.01
2022-10-31T03:39:10.089Z,88.68
2022-10-31T03:40:11.273Z,88.54
2022-10-31T03:41:11.464Z,88.63
2022-10-31T03:42:11.947Z,88.54
2022-10-31T03:43:12.782Z,88.34
2022-10-31T03:44:13.387Z,88.82
2022-10-31T03:45:14.322Z,88.63
2022-10-31T03:46:14.955Z,88.68
2022-10-31T03:47:16.169Z,88.59
2022-10-31T03:48:16.416Z,89.06
2022-10-31T03:49:16.628Z,88.59
2022-10-31T03:50:17.571Z,88.34
2022-10-31T03:51:17.786Z,88.63
2022-10-31T03:52:18.456Z,89.06
2022-10-31T03:53:19.389Z,88.73
2022-10-31T03:54:19.882Z,88.34
2022-10-31T03:55:20.362Z,88.3
2022-10-31T03:56:21.289Z,88.59
2022-10-31T03:57:21.511Z,88.3
2022-10-31T03:58:22.000Z,88.11
2022-10-31T03:59:21.909Z,88.4
2022-10-31T04:00:22.820Z,88.49
2022-10-31T04:01:23.791Z,88.2
2022-10-31T04:02:24.620Z,88.11
2022-10-31T04:03:24.406Z,87.73
2022-10-31T04:04:25.359Z,88.3
2022-10-31T04:05:25.867Z,88.3
2022-10-31T04:06:25.776Z,88.2
2022-10-31T04:07:26.706Z,88.87
2022-10-31T04:08:26.969Z,88.78
2022-10-31T04:09:27.150Z,89.16
2022-10-31T04:10:30.147Z,89.35
2022-10-31T04:11:28.265Z,89.45
2022-10-31T04:12:29.173Z,89.83
2022-10-31T04:13:29.682Z,88.97
2022-10-31T04:14:30.612Z,89.45
2022-10-31T04:15:31.518Z,89.54
2022-10-31T04:16:32.425Z,89.25
2022-10-31T04:17:33.358Z,89.45
2022-10-31T04:18:33.663Z,89.83
2022-10-31T04:19:34.567Z,89.73
2022-10-31T04:20:34.794Z,89.73
2022-10-31T04:21:35.709Z,89.83
2022-10-31T04:22:35.622Z,89.73
2022-10-31T04:23:36.828Z,89.54
2022-10-31T04:24:37.425Z,89.73
2022-10-31T04:25:38.363Z,89.92
2022-10-31T04:26:39.290Z,90.11
2022-10-31T04:27:39.494Z,90.11
2022-10-31T04:28:40.209Z,90.4
2022-10-31T04:29:41.152Z,90.4
2022-10-31T04:30:41.414Z,90.97
2022-10-31T04:31:42.001Z,90.97
2022-10-31T04:32:43.188Z,91.07
2022-10-31T04:33:43.376Z,90.31
2022-10-31T04:34:43.865Z,90.97
2022-10-31T04:35:44.518Z,90.4
2022-10-31T04:36:44.709Z,90.4
2022-10-31T04:37:45.685Z,90.69
2022-10-31T04:38:46.782Z,90.5
2022-10-31T04:39:47.681Z,90.69
2022-10-31T04:40:47.869Z,90.4
2022-10-31T04:41:48.350Z,90.31
2022-10-31T04:42:48.837Z,90.4
2022-10-31T04:43:49.274Z,90.88
2022-10-31T04:44:49.961Z,91.02
2022-10-31T04:45:49.855Z,91.31
2022-10-31T04:46:50.337Z,91.21
2022-10-31T04:47:50.972Z,91.6
2022-10-31T04:48:52.303Z,91.31
2022-10-31T04:49:52.798Z,91.5
2022-10-31T04:50:52.715Z,91.5
2022-10-31T04:51:53.209Z,91.41
2022-10-31T04:52:53.544Z,91.6
2022-10-31T04:53:54.798Z,91.69
2022-10-31T04:54:55.712Z,91.41
2022-10-31T04:55:56.198Z,91.21
2022-10-31T04:56:56.540Z,91.12
2022-10-31T04:57:57.637Z,91.69
2022-10-31T04:58:57.618Z,91.88
2022-10-31T04:59:57.533Z,92.17
2022-10-31T05:00:58.880Z,92.07
2022-10-31T05:01:58.869Z,91.69
2022-10-31T05:02:59.078Z,91.69
2022-10-31T05:03:59.724Z,91.69
2022-10-31T05:05:00.222Z,91.69
2022-10-31T05:06:00.132Z,91.41
2022-10-31T05:07:00.324Z,91.88
2022-10-31T05:08:01.259Z,91.6
2022-10-31T05:09:01.651Z,91.88
2022-10-31T05:10:02.261Z,91.78
2022-10-31T05:11:09.199Z,92.07
2022-10-31T05:12:03.116Z,91.12
2022-10-31T05:13:05.180Z,91.69
2022-10-31T05:14:05.017Z,91.78
2022-10-31T05:15:05.223Z,91.69
2022-10-31T05:16:05.411Z,91.12
2022-10-31T05:17:05.896Z,91.69
2022-10-31T05:18:07.053Z,91.6
2022-10-31T05:19:07.337Z,91.5
2022-10-31T05:20:07.555Z,91.69
2022-10-31T05:21:07.770Z,91.88
2022-10-31T05:22:08.257Z,91.02
2022-10-31T05:23:08.468Z,91.12
2022-10-31T05:24:08.969Z,91.12
2022-10-31T05:25:08.867Z,91.41
2022-10-31T05:26:10.073Z,91.31
2022-10-31T05:27:09.984Z,91.21
2022-10-31T05:28:10.617Z,91.21
2022-10-31T05:29:11.318Z,91.12
2022-10-31T05:30:11.946Z,91.88
2022-10-31T05:31:13.169Z,91.41
2022-10-31T05:32:13.074Z,91.69
2022-10-31T05:33:13.660Z,91.69
2022-10-31T05:34:14.850Z,91.88
2022-10-31T05:35:15.775Z,91.88
2022-10-31T05:36:16.289Z,91.6
2022-10-31T05:37:16.484Z,91.5
2022-10-31T05:38:16.989Z,91.88
2022-10-31T05:39:17.079Z,91.69
2022-10-31T05:40:18.265Z,91.69
2022-10-31T05:41:18.474Z,92.26
2022-10-31T05:42:18.680Z,91.78
2022-10-31T05:43:19.018Z,92.17
2022-10-31T05:44:19.628Z,91.31
2022-10-31T05:45:19.523Z,91.69
2022-10-31T05:46:20.428Z,91.69
2022-10-31T05:47:21.006Z,91.69
2022-10-31T05:48:21.645Z,91.78
2022-10-31T05:49:21.920Z,91.12
2022-10-31T05:50:22.853Z,91.88
2022-10-31T05:51:23.792Z,91.78
2022-10-31T05:52:23.977Z,91.31
2022-10-31T05:53:24.496Z,91.21
2022-10-31T05:54:25.382Z,90.93
2022-10-31T05:55:26.297Z,90.31
2022-10-31T05:56:27.220Z,90.17
2022-10-31T05:57:27.410Z,89.69
2022-10-31T05:58:27.899Z,89.5
2022-10-31T05:59:28.906Z,89.45
2022-10-31T06:00:29.544Z,89.83
2022-10-31T06:01:30.552Z,89.25
2022-10-31T06:02:30.997Z,89.16
2022-10-31T06:03:31.908Z,89.64
2022-10-31T06:04:32.264Z,89.45
2022-10-31T06:05:32.856Z,88.59
2022-10-31T06:06:33.792Z,89.25
2022-10-31T06:07:34.002Z,88.87
2022-10-31T06:08:34.223Z,89.06
2022-10-31T06:09:34.328Z,88.78
2022-10-31T06:10:34.817Z,88.59
2022-10-31T06:11:34.999Z,88.01
2022-10-31T06:12:36.397Z,88.4
2022-10-31T06:13:36.322Z,88.59
2022-10-31T06:14:36.962Z,88.3
2022-10-31T06:15:37.878Z,88.49
2022-10-31T06:16:38.214Z,87.82
2022-10-31T06:17:39.423Z,88.4
2022-10-31T06:18:40.334Z,88.59
2022-10-31T06:19:40.440Z,88.3
2022-10-31T06:20:41.057Z,88.3
2022-10-31T06:21:40.995Z,88.59
2022-10-31T06:22:42.248Z,88.78
2022-10-31T06:23:42.176Z,88.4
2022-10-31T06:24:43.089Z,87.82
2022-10-31T06:25:43.570Z,88.11
2022-10-31T06:26:44.189Z,88.3
2022-10-31T06:27:44.829Z,88.3
2022-10-31T06:28:45.723Z,88.59
2022-10-31T06:29:45.707Z,88.68
2022-10-31T06:30:46.904Z,88.11
2022-10-31T06:31:47.515Z,88.68
2022-10-31T06:32:48.434Z,88.11
2022-10-31T06:33:48.529Z,87.63
2022-10-31T06:34:49.426Z,87.25
2022-10-31T06:35:50.360Z,87.44
2022-10-31T06:36:51.292Z,87.06
2022-10-31T06:37:55.920Z,86.87
2022-10-31T06:38:52.938Z,86.49
2022-10-31T06:39:53.801Z,86.68
2022-10-31T06:40:54.710Z,86.39
2022-10-31T06:41:54.924Z,86.24
2022-10-31T06:42:55.867Z,85.67
2022-10-31T06:43:56.357Z,85.1
2022-10-31T06:44:56.512Z,84.91
2022-10-31T06:45:56.709Z,84.62
2022-10-31T06:46:57.328Z,84.72
2022-10-31T06:48:21.910Z,85.1
2022-10-31T06:48:58.352Z,84.72
2022-10-31T06:49:59.635Z,84.72
2022-10-31T06:51:04.927Z,84.52
2022-10-31T06:52:00.873Z,84.81
2022-10-31T06:53:01.496Z,84.91
2022-10-31T06:54:01.861Z,84.81
2022-10-31T06:55:02.776Z,84.91
2022-10-31T06:56:03.381Z,84.62
2022-10-31T06:57:03.997Z,85
2022-10-31T06:58:08.566Z,84.91
2022-10-31T06:59:05.108Z,84.81
2022-10-31T07:00:05.763Z,84.47
2022-10-31T07:01:06.175Z,85.33
2022-10-31T07:02:07.459Z,85.14
2022-10-31T07:03:06.923Z,85.24
2022-10-31T07:04:07.683Z,85.42
2022-10-31T07:05:08.578Z,84.76
2022-10-31T07:06:09.785Z,84.85
2022-10-31T07:07:10.307Z,84.56
2022-10-31T07:08:10.509Z,84.38
2022-10-31T07:09:10.426Z,85.05
2022-10-31T07:11:10.969Z,84.23
2022-10-31T07:12:12.186Z,84.52
2022-10-31T07:13:12.387Z,84.61
2022-10-31T07:14:13.014Z,83.27
2022-10-31T07:15:13.914Z,82.83
2022-10-31T07:16:14.832Z,81.49
2022-10-31T07:17:15.030Z,79.72
2022-10-31T07:18:15.950Z,78.32
2022-10-31T07:19:16.173Z,77.5
2022-10-31T07:20:16.191Z,76.06
2022-10-31T07:21:16.906Z,74.37
2022-10-31T07:22:17.867Z,73.9
2022-10-31T07:23:18.359Z,73.55
2022-10-31T07:24:18.589Z,72.88
2022-10-31T07:25:18.827Z,72.2
2022-10-31T07:26:19.758Z,72.01
2022-10-31T07:27:19.674Z,71.92
2022-10-31T07:28:20.297Z,71.92
2022-10-31T07:29:20.905Z,71.72
2022-10-31T07:30:21.346Z,72.3
2022-10-31T07:31:22.444Z,72.2
2022-10-31T07:32:22.380Z,72.39
2022-10-31T07:33:23.301Z,72.88
2022-10-31T07:34:23.195Z,73.55
2022-10-31T07:35:24.410Z,73.16
2022-10-31T07:36:25.331Z,73.55
2022-10-31T07:37:25.698Z,72.97
2022-10-31T07:38:26.611Z,73.16
2022-10-31T07:39:27.833Z,73.65
2022-10-31T07:40:28.238Z,73.51
2022-10-31T07:41:28.436Z,73.51
2022-10-31T07:42:29.077Z,73.7
2022-10-31T07:43:29.698Z,73.9
2022-10-31T07:44:30.624Z,74.08
2022-10-31T07:45:30.827Z,74.27
2022-10-31T07:46:32.024Z,74.91
2022-10-31T07:47:32.956Z,74.47
2022-10-31T07:48:32.891Z,74.47
2022-10-31T07:49:33.528Z,74.52
2022-10-31T07:50:34.269Z,74.27
2022-10-31T07:51:35.199Z,75.23
2022-10-31T07:52:35.910Z,75.81
2022-10-31T07:53:36.410Z,74.66
2022-10-31T07:54:37.065Z,73.93
2022-10-31T07:55:37.077Z,73.93
2022-10-31T07:56:37.847Z,73.65
2022-10-31T07:57:40.311Z,73.93
2022-10-31T07:58:39.520Z,73.68
2022-10-31T07:59:40.125Z,73.1
2022-10-31T08:00:41.687Z,72.05
2022-10-31T08:01:41.786Z,71.95
2022-10-31T08:02:42.002Z,71.76
2022-10-31T08:03:42.197Z,72.43
2022-10-31T08:04:42.540Z,71.95
2022-10-31T08:05:43.311Z,72.63
2022-10-31T08:06:44.227Z,72.05
2022-10-31T08:07:44.768Z,72.43
2022-10-31T08:08:45.678Z,73
2022-10-31T08:09:45.897Z,72.53
2022-10-31T08:10:46.935Z,72.72
2022-10-31T08:11:47.838Z,73.49
2022-10-31T08:12:48.484Z,73.97
2022-10-31T08:13:48.974Z,74.06
2022-10-31T08:14:49.182Z,73.97
2022-10-31T08:15:49.789Z,73.1
2022-10-31T08:16:50.277Z,73.3
2022-10-31T08:17:50.172Z,73.87
2022-10-31T08:18:50.634Z,73.81
2022-10-31T08:19:50.844Z,73.52
2022-10-31T08:20:51.160Z,73.81
2022-10-31T08:21:51.388Z,72.89
2022-10-31T08:22:51.328Z,71.35
2022-10-31T08:23:52.533Z,70.78
2022-10-31T08:24:52.774Z,70.62
2022-10-31T08:25:52.682Z,70.72
2022-10-31T08:26:52.873Z,71.52
2022-10-31T08:27:53.486Z,71.91
2022-10-31T08:28:53.895Z,72.09
2022-10-31T08:29:54.827Z,69.98
2022-10-31T08:30:55.827Z,70.07
2022-10-31T08:31:55.755Z,69.63
2022-10-31T08:32:56.376Z,69.44
2022-10-31T08:33:56.871Z,69.89
2022-10-31T08:34:57.790Z,70.46
2022-10-31T08:35:57.723Z,70.65
2022-10-31T08:36:58.245Z,71.23
2022-10-31T08:37:59.592Z,72.77
2022-10-31T08:39:06.064Z,73.63
2022-10-31T08:40:00.345Z,74.88
2022-10-31T08:41:00.947Z,75.65
2022-10-31T08:42:01.147Z,75.84
2022-10-31T08:43:02.346Z,74.6
2022-10-31T08:44:02.571Z,74.17
2022-10-31T08:45:03.506Z,74.46
2022-10-31T08:46:03.741Z,75.42
2022-10-31T08:47:04.671Z,76.39
2022-10-31T08:48:05.702Z,77.44
2022-10-31T08:49:05.080Z,77.63
2022-10-31T08:50:06.001Z,76.96
2022-10-31T08:51:07.008Z,76.19
2022-10-31T08:52:11.979Z,75.65
2022-10-31T08:53:11.316Z,76.14
2022-10-31T08:54:09.299Z,75.79
2022-10-31T08:55:09.524Z,74.73
2022-10-31T08:56:10.603Z,74.15
2022-10-31T08:57:11.095Z,73.77
2022-10-31T08:58:12.020Z,74.15
2022-10-31T08:59:12.228Z,74.15
2022-10-31T09:00:13.145Z,73.22
2022-10-31T09:01:13.648Z,73.99
2022-10-31T09:02:14.054Z,73.8
2022-10-31T09:03:14.348Z,73.55
2022-10-31T09:04:14.879Z,72.01
2022-10-31T09:05:14.827Z,71.76
2022-10-31T09:06:15.641Z,71.18
2022-10-31T09:07:31.533Z,69.19
2022-10-31T09:08:21.895Z,68.99
2022-10-31T09:09:17.093Z,70.31
2022-10-31T09:10:17.317Z,71.37
2022-10-31T09:11:18.701Z,71.28
2022-10-31T09:12:19.355Z,70.12
2022-10-31T09:13:19.549Z,70.02
2022-10-31T09:14:20.348Z,69.19
2022-10-31T09:15:20.567Z,69.57
2022-10-31T09:16:20.920Z,69.48
2022-10-31T09:17:22.139Z,68.26
2022-10-31T09:18:22.801Z,67.68
2022-10-31T09:19:23.722Z,67.88
2022-10-31T09:20:24.050Z,67.97
2022-10-31T09:21:24.507Z,66.43
2022-10-31T09:22:25.892Z,66.62
2022-10-31T09:23:26.864Z,67.4
2022-10-31T09:24:27.789Z,66.14
2022-10-31T09:25:28.023Z,66.01
2022-10-31T09:26:28.387Z,66.01
2022-10-31T09:27:29.288Z,66.59
2022-10-31T09:28:30.211Z,67.71
2022-10-31T09:29:31.421Z,68.96
2022-10-31T09:30:32.345Z,70.31
2022-10-31T09:31:32.638Z,70.86
2022-10-31T09:32:33.083Z,72.01
2022-10-31T09:33:33.282Z,71.62
2022-10-31T09:34:33.213Z,71.91
2022-10-31T09:35:33.884Z,72.01
2022-10-31T09:36:34.492Z,72.2
2022-10-31T09:37:35.701Z,72.01
2022-10-31T09:38:35.908Z,72.49
2022-10-31T09:39:36.874Z,73.16
2022-10-31T09:40:37.404Z,73.16
2022-10-31T09:41:37.771Z,72.97
2022-10-31T09:42:37.791Z,72.59
2022-10-31T09:43:38.414Z,72.68
2022-10-31T09:44:39.035Z,73.07
2022-10-31T09:45:39.969Z,73.36
2022-10-31T09:46:40.311Z,73.07
2022-10-31T09:47:41.231Z,73.13
2022-10-31T09:48:41.456Z,73.51
2022-10-31T09:49:41.852Z,73.42
2022-10-31T09:50:42.433Z,73.22
2022-10-31T09:51:43.249Z,73.55
2022-10-31T09:52:44.313Z,73.22
2022-10-31T09:53:45.250Z,73.9
2022-10-31T09:54:45.890Z,73.61
2022-10-31T09:55:46.421Z,73.13
2022-10-31T09:56:46.347Z,73.13
2022-10-31T09:57:47.281Z,72.94
2022-10-31T09:58:47.773Z,71.11
2022-10-31T09:59:48.389Z,71.01
2022-10-31T10:00:49.240Z,71.78
2022-10-31T10:01:50.433Z,71.69
2022-10-31T10:02:50.861Z,71.11
2022-10-31T10:03:51.450Z,74.19
2022-10-31T10:04:51.351Z,74.67
2022-10-31T10:05:52.270Z,75.15
2022-10-31T10:06:52.611Z,75.73
2022-10-31T10:07:52.825Z,76.5
2022-10-31T10:08:53.756Z,76.5
2022-10-31T10:09:54.021Z,76.07
2022-10-31T10:10:54.250Z,76.4
2022-10-31T10:11:54.968Z,75.88
2022-10-31T10:12:55.622Z,74.73
2022-10-31T10:13:56.447Z,74.34
2022-10-31T10:14:57.180Z,73.67
2022-10-31T10:15:57.371Z,73.38
2022-10-31T10:16:58.008Z,74.25
2022-10-31T10:17:58.934Z,74.15
2022-10-31T10:18:59.154Z,73.03
2022-10-31T10:19:59.354Z,72.55
2022-10-31T10:21:00.371Z,72.55
2022-10-31T10:22:00.828Z,73.84
2022-10-31T10:23:02.037Z,73.07
2022-10-31T10:24:01.759Z,73.16
2022-10-31T10:25:02.394Z,74.03
2022-10-31T10:26:05.103Z,74.22
2022-10-31T10:27:03.092Z,73.65
2022-10-31T10:28:04.790Z,72.88
2022-10-31T10:29:04.744Z,72.59
2022-10-31T10:30:05.952Z,71.62
2022-10-31T10:31:06.582Z,71.24
2022-10-31T10:32:07.625Z,72.01
2022-10-31T10:33:08.144Z,72.11
2022-10-31T10:34:09.230Z,72.3
2022-10-31T10:35:09.455Z,72.11
2022-10-31T10:36:09.396Z,71.81
2022-10-31T10:37:10.621Z,71.72
2022-10-31T10:38:10.846Z,72.59
2022-10-31T10:39:11.514Z,73.58
2022-10-31T10:40:11.436Z,74.26
2022-10-31T10:41:11.960Z,74.8
2022-10-31T10:42:12.408Z,75.28
2022-10-31T10:43:13.359Z,75.76
2022-10-31T10:44:13.624Z,75.23
2022-10-31T10:45:13.847Z,75.51
2022-10-31T10:46:17.415Z,74.26
2022-10-31T10:47:15.627Z,73.88
2022-10-31T10:48:15.562Z,72.91
2022-10-31T10:49:16.483Z,73.49
2022-10-31T10:50:17.116Z,73.1
2022-10-31T10:53:31.324Z,73.72
2022-10-31T10:54:31.674Z,73.14
2022-10-31T10:55:31.888Z,73.14
2022-10-31T10:56:32.422Z,72.95
2022-10-31T10:57:33.053Z,73.75
2022-10-31T10:58:33.975Z,73.18
2022-10-31T10:59:34.650Z,72.12
2022-10-31T11:00:35.797Z,72.21
2022-10-31T11:01:36.562Z,70.9
2022-10-31T11:02:36.770Z,71.28
2022-10-31T11:03:37.857Z,70.8
2022-10-31T11:04:38.095Z,70.22
2022-10-31T11:05:38.716Z,70.19
2022-10-31T11:06:39.637Z,71.44
2022-10-31T11:07:40.567Z,72.12
2022-10-31T11:08:41.016Z,72.73
2022-10-31T11:09:40.749Z,72.73
2022-10-31T11:10:41.254Z,72.15
2022-10-31T11:11:41.490Z,71.48
2022-10-31T11:12:42.143Z,70.61
2022-10-31T11:13:42.373Z,71.28
2022-10-31T11:14:43.631Z,71.48
2022-10-31T11:15:43.525Z,71.38
2022-10-31T11:16:46.882Z,71.77
2022-10-31T11:17:44.523Z,72.92
2022-10-31T11:18:45.331Z,73.5
2022-10-31T11:19:45.338Z,73.41
2022-10-31T11:20:45.933Z,73.69
2022-10-31T11:21:52.695Z,73.99
2022-10-31T11:22:47.344Z,74.37
2022-10-31T11:23:48.666Z,74.37
2022-10-31T11:24:48.916Z,73.89
2022-10-31T11:25:49.419Z,74.18
2022-10-31T11:26:49.353Z,73.5
2022-10-31T11:27:49.985Z,72.54
2022-10-31T11:28:50.933Z,73.89
2022-10-31T11:29:51.149Z,71.77
2022-10-31T11:30:52.001Z,71.77
2022-10-31T11:31:52.909Z,71.38
2022-10-31T11:32:53.836Z,70.9
2022-10-31T11:33:53.705Z,70.13
2022-10-31T11:34:54.926Z,70.9
2022-10-31T11:36:00.517Z,71.28
2022-10-31T11:36:56.438Z,71.67
2022-10-31T11:37:56.658Z,73.21
2022-10-31T11:38:57.110Z,73.89
2022-10-31T11:39:57.636Z,73.69
2022-10-31T11:40:57.867Z,74.27
2022-10-31T11:41:58.113Z,73.79
2022-10-31T11:42:59.136Z,74.95
2022-10-31T11:43:59.852Z,74.85
2022-10-31T11:45:00.520Z,76.1
2022-10-31T11:46:00.443Z,76.4
2022-10-31T11:47:01.224Z,75.92
2022-10-31T11:48:05.691Z,74.91
2022-10-31T11:49:01.914Z,74.82
2022-10-31T11:50:02.119Z,75.3
2022-10-31T11:51:03.022Z,76.55
2022-10-31T11:52:02.960Z,77.33
2022-10-31T11:53:03.586Z,76.84
2022-10-31T11:54:08.445Z,76.65
2022-10-31T11:55:04.810Z,76.07
2022-10-31T11:56:05.370Z,76.36
2022-10-31T11:57:05.317Z,77.51
2022-10-31T11:58:07.076Z,77.71
2022-10-31T11:59:06.973Z,77.42
2022-10-31T12:00:08.174Z,76.84
2022-10-31T12:01:08.431Z,75.68
2022-10-31T12:02:08.853Z,76.55
2022-10-31T12:03:09.463Z,75.97
2022-10-31T12:04:10.094Z,77.23
2022-10-31T12:05:10.093Z,77.71
2022-10-31T12:06:11.319Z,77.81
2022-10-31T12:07:11.972Z,77.81
2022-10-31T12:08:12.344Z,76.84
2022-10-31T12:09:13.383Z,76.2
2022-10-31T12:10:14.054Z,76.78
2022-10-31T12:11:14.561Z,77.03
2022-10-31T12:12:14.497Z,77.61
2022-10-31T12:13:15.122Z,78.48
2022-10-31T12:14:15.408Z,78.42
2022-10-31T12:15:16.039Z,78.71
2022-10-31T12:16:16.385Z,78.71
2022-10-31T12:17:16.889Z,77.75
2022-10-31T12:18:17.799Z,78.71
2022-10-31T12:19:17.733Z,77.88
2022-10-31T12:20:18.655Z,77.69
2022-10-31T12:21:19.577Z,77.5
2022-10-31T12:22:19.783Z,76.43
2022-10-31T12:23:20.436Z,76.15
2022-10-31T12:24:20.781Z,76.15
2022-10-31T12:25:20.733Z,76.34
2022-10-31T12:26:21.935Z,75.85
2022-10-31T12:27:22.157Z,74.89
2022-10-31T12:28:22.057Z,75.67
2022-10-31T12:29:22.669Z,74.99
2022-10-31T12:30:23.297Z,75.76
2022-10-31T12:31:24.221Z,74.21
2022-10-31T12:32:24.423Z,73.35
2022-10-31T12:33:25.349Z,73.83
2022-10-31T12:34:26.054Z,74.79
2022-10-31T12:35:26.718Z,75.76
2022-10-31T12:36:27.735Z,74.79
2022-10-31T12:37:28.647Z,75.67
2022-10-31T12:38:28.848Z,75.27
2022-10-31T12:39:30.090Z,75.47
2022-10-31T12:40:31.057Z,75.67
2022-10-31T12:41:31.278Z,74.99
2022-10-31T12:42:31.905Z,75.09
2022-10-31T12:43:32.823Z,74.99
2022-10-31T12:44:33.864Z,75.67
2022-10-31T12:45:34.881Z,76.82
2022-10-31T12:46:35.093Z,76.63
2022-10-31T12:47:35.996Z,76.05
2022-10-31T12:48:36.621Z,75.7
2022-10-31T12:49:36.968Z,76.86
2022-10-31T12:50:37.169Z,77.59
2022-10-31T12:51:38.238Z,76.47
2022-10-31T12:52:38.752Z,76.86
2022-10-31T12:53:38.951Z,76.82
2022-10-31T12:54:41.579Z,76.53
2022-10-31T12:55:40.465Z,77.53
2022-10-31T12:56:41.096Z,76.15
2022-10-31T12:57:41.636Z,76.24
2022-10-31T12:58:41.966Z,76.05
2022-10-31T12:59:42.613Z,77.3
2022-10-31T13:00:43.610Z,77.3
2022-10-31T13:01:44.071Z,75.95
2022-10-31T13:02:44.489Z,76.63
2022-10-31T13:03:44.691Z,77.78
2022-10-31T13:04:45.731Z,78.66
2022-10-31T13:05:45.666Z,80
2022-10-31T13:06:50.115Z,79.29